sensor_id;sensor_type;location;lat;lon;timestamp;P1;durP1;ratioP1;P2;durP2;ratioP2
479;SDS011;226;48.606;9.096;2023-02-19T00:01:46;2.47;;;2.27;;
479;SDS011;226;48.606;9.096;2023-02-19T00:04:15;3.13;;;2.50;;
479;SDS011;226;48.606;9.096;2023-02-19T00:06:45;1.90;;;1.80;;
479;SDS011;226;48.606;9.096;2023-02-19T00:09:14;2.53;;;2.27;;
479;SDS011;226;48.606;9.096;2023-02-19T00:11:44;4.73;;;1.53;;
479;SDS011;226;48.606;9.096;2023-02-19T00:14:13;2.93;;;2.23;;
479;SDS011;226;48.606;9.096;2023-02-19T00:16:42;2.07;;;1.90;;
479;SDS011;226;48.606;9.096;2023-02-19T00:19:11;3.73;;;1.90;;
479;SDS011;226;48.606;9.096;2023-02-19T00:21:41;2.07;;;1.97;;
479;SDS011;226;48.606;9.096;2023-02-19T00:24:10;2.47;;;2.27;;
479;SDS011;226;48.606;9.096;2023-02-19T00:26:41;2.97;;;1.97;;
479;SDS011;226;48.606;9.096;2023-02-19T00:29:11;2.80;;;2.27;;
479;SDS011;226;48.606;9.096;2023-02-19T00:31:40;5.87;;;2.60;;
479;SDS011;226;48.606;9.096;2023-02-19T00:34:09;2.30;;;1.80;;
479;SDS011;226;48.606;9.096;2023-02-19T00:36:38;2.37;;;2.17;;
479;SDS011;226;48.606;9.096;2023-02-19T00:39:07;2.70;;;2.30;;
479;SDS011;226;48.606;9.096;2023-02-19T00:41:41;2.47;;;2.27;;
479;SDS011;226;48.606;9.096;2023-02-19T00:44:09;3.07;;;2.00;;
479;SDS011;226;48.606;9.096;2023-02-19T00:46:38;2.77;;;2.33;;
479;SDS011;226;48.606;9.096;2023-02-19T00:49:08;3.60;;;2.50;;
479;SDS011;226;48.606;9.096;2023-02-19T00:51:41;3.27;;;2.90;;
479;SDS011;226;48.606;9.096;2023-02-19T00:54:09;3.80;;;2.77;;
479;SDS011;226;48.606;9.096;2023-02-19T00:56:39;2.13;;;1.73;;
479;SDS011;226;48.606;9.096;2023-02-19T00:59:07;1.80;;;1.70;;
479;SDS011;226;48.606;9.096;2023-02-19T01:01:36;2.93;;;2.63;;
479;SDS011;226;48.606;9.096;2023-02-19T01:04:04;2.30;;;1.67;;
479;SDS011;226;48.606;9.096;2023-02-19T01:06:33;2.37;;;2.27;;
479;SDS011;226;48.606;9.096;2023-02-19T01:09:01;3.10;;;2.80;;
479;SDS011;226;48.606;9.096;2023-02-19T01:11:30;4.30;;;2.40;;
479;SDS011;226;48.606;9.096;2023-02-19T01:13:59;4.67;;;2.63;;
479;SDS011;226;48.606;9.096;2023-02-19T01:16:28;2.33;;;2.03;;
479;SDS011;226;48.606;9.096;2023-02-19T01:18:57;3.07;;;2.17;;
479;SDS011;226;48.606;9.096;2023-02-19T01:21:25;2.23;;;1.60;;
479;SDS011;226;48.606;9.096;2023-02-19T01:23:55;2.73;;;2.40;;
479;SDS011;226;48.606;9.096;2023-02-19T01:26:25;2.03;;;1.80;;
479;SDS011;226;48.606;9.096;2023-02-19T01:28:57;1.50;;;1.40;;
479;SDS011;226;48.606;9.096;2023-02-19T01:31:25;3.10;;;2.40;;
479;SDS011;226;48.606;9.096;2023-02-19T01:33:55;4.07;;;2.77;;
479;SDS011;226;48.606;9.096;2023-02-19T01:36:25;4.27;;;2.33;;
479;SDS011;226;48.606;9.096;2023-02-19T01:38:54;2.37;;;2.10;;
479;SDS011;226;48.606;9.096;2023-02-19T01:41:23;2.40;;;2.20;;
479;SDS011;226;48.606;9.096;2023-02-19T01:43:54;1.53;;;1.43;;
479;SDS011;226;48.606;9.096;2023-02-19T01:46:25;4.40;;;2.33;;
479;SDS011;226;48.606;9.096;2023-02-19T01:48:54;3.23;;;2.97;;
479;SDS011;226;48.606;9.096;2023-02-19T01:51:25;1.40;;;1.30;;
479;SDS011;226;48.606;9.096;2023-02-19T01:53:54;3.33;;;2.87;;
479;SDS011;226;48.606;9.096;2023-02-19T01:56:26;1.30;;;0.73;;
479;SDS011;226;48.606;9.096;2023-02-19T01:58:58;3.70;;;3.33;;
479;SDS011;226;48.606;9.096;2023-02-19T02:01:27;2.00;;;1.77;;
479;SDS011;226;48.606;9.096;2023-02-19T02:03:55;1.80;;;1.70;;
479;SDS011;226;48.606;9.096;2023-02-19T02:06:24;2.50;;;2.30;;
479;SDS011;226;48.606;9.096;2023-02-19T02:08:57;1.50;;;1.50;;
479;SDS011;226;48.606;9.096;2023-02-19T02:11:44;1.90;;;1.80;;
479;SDS011;226;48.606;9.096;2023-02-19T02:14:16;3.37;;;2.03;;
479;SDS011;226;48.606;9.096;2023-02-19T02:16:51;2.00;;;1.70;;
479;SDS011;226;48.606;9.096;2023-02-19T02:19:41;3.13;;;1.70;;
479;SDS011;226;48.606;9.096;2023-02-19T02:22:31;0.90;;;0.90;;
479;SDS011;226;48.606;9.096;2023-02-19T02:25:09;1.93;;;1.70;;
479;SDS011;226;48.606;9.096;2023-02-19T02:28:00;2.67;;;1.67;;
479;SDS011;226;48.606;9.096;2023-02-19T02:30:42;1.83;;;1.60;;
479;SDS011;226;48.606;9.096;2023-02-19T02:33:14;1.70;;;1.70;;
479;SDS011;226;48.606;9.096;2023-02-19T02:35:48;2.60;;;2.10;;
479;SDS011;226;48.606;9.096;2023-02-19T02:38:19;2.23;;;2.13;;
479;SDS011;226;48.606;9.096;2023-02-19T02:40:50;3.63;;;2.40;;
479;SDS011;226;48.606;9.096;2023-02-19T02:43:18;1.40;;;1.30;;
479;SDS011;226;48.606;9.096;2023-02-19T02:45:48;2.80;;;2.07;;
479;SDS011;226;48.606;9.096;2023-02-19T02:51:12;3.80;;;2.03;;
479;SDS011;226;48.606;9.096;2023-02-19T02:53:46;1.63;;;1.37;;
479;SDS011;226;48.606;9.096;2023-02-19T02:56:34;1.40;;;1.30;;
479;SDS011;226;48.606;9.096;2023-02-19T02:59:03;2.00;;;1.90;;
479;SDS011;226;48.606;9.096;2023-02-19T03:01:36;2.57;;;1.90;;
479;SDS011;226;48.606;9.096;2023-02-19T03:04:29;1.47;;;1.40;;
479;SDS011;226;48.606;9.096;2023-02-19T03:07:03;2.73;;;1.60;;
479;SDS011;226;48.606;9.096;2023-02-19T03:09:35;2.07;;;1.90;;
479;SDS011;226;48.606;9.096;2023-02-19T03:12:09;2.20;;;1.57;;
479;SDS011;226;48.606;9.096;2023-02-19T03:14:59;3.27;;;2.90;;
479;SDS011;226;48.606;9.096;2023-02-19T03:18:05;2.27;;;2.00;;
479;SDS011;226;48.606;9.096;2023-02-19T03:20:54;2.83;;;1.70;;
479;SDS011;226;48.606;9.096;2023-02-19T03:23:25;5.50;;;3.03;;
479;SDS011;226;48.606;9.096;2023-02-19T03:26:10;2.67;;;2.07;;
479;SDS011;226;48.606;9.096;2023-02-19T03:28:39;1.47;;;1.37;;
479;SDS011;226;48.606;9.096;2023-02-19T03:31:27;1.70;;;1.60;;
479;SDS011;226;48.606;9.096;2023-02-19T03:33:58;1.90;;;1.80;;
479;SDS011;226;48.606;9.096;2023-02-19T03:36:31;2.93;;;1.80;;
479;SDS011;226;48.606;9.096;2023-02-19T03:39:02;0.87;;;0.87;;
479;SDS011;226;48.606;9.096;2023-02-19T03:41:34;1.67;;;1.60;;
479;SDS011;226;48.606;9.096;2023-02-19T03:44:10;2.13;;;2.00;;
479;SDS011;226;48.606;9.096;2023-02-19T03:46:44;2.50;;;2.40;;
479;SDS011;226;48.606;9.096;2023-02-19T03:49:20;2.70;;;2.10;;
479;SDS011;226;48.606;9.096;2023-02-19T03:51:53;2.30;;;2.10;;
479;SDS011;226;48.606;9.096;2023-02-19T03:54:29;2.30;;;1.67;;
479;SDS011;226;48.606;9.096;2023-02-19T03:57:02;1.07;;;1.07;;
479;SDS011;226;48.606;9.096;2023-02-19T03:59:40;2.20;;;2.00;;
479;SDS011;226;48.606;9.096;2023-02-19T04:02:15;3.23;;;2.57;;
479;SDS011;226;48.606;9.096;2023-02-19T04:04:48;1.77;;;1.67;;
479;SDS011;226;48.606;9.096;2023-02-19T04:07:19;3.50;;;1.70;;
479;SDS011;226;48.606;9.096;2023-02-19T04:09:48;1.50;;;1.40;;
479;SDS011;226;48.606;9.096;2023-02-19T04:12:17;5.83;;;2.10;;
479;SDS011;226;48.606;9.096;2023-02-19T04:14:48;1.93;;;1.80;;
479;SDS011;226;48.606;9.096;2023-02-19T04:17:21;2.93;;;2.70;;
479;SDS011;226;48.606;9.096;2023-02-19T04:19:54;2.23;;;2.03;;
479;SDS011;226;48.606;9.096;2023-02-19T04:22:23;1.90;;;1.80;;
479;SDS011;226;48.606;9.096;2023-02-19T04:24:52;1.50;;;1.40;;
479;SDS011;226;48.606;9.096;2023-02-19T04:27:21;2.63;;;2.00;;
479;SDS011;226;48.606;9.096;2023-02-19T04:29:50;1.50;;;1.40;;
479;SDS011;226;48.606;9.096;2023-02-19T04:32:18;4.20;;;2.40;;
479;SDS011;226;48.606;9.096;2023-02-19T04:34:46;5.07;;;3.23;;
479;SDS011;226;48.606;9.096;2023-02-19T04:37:16;2.40;;;2.20;;
479;SDS011;226;48.606;9.096;2023-02-19T04:39:44;2.70;;;2.23;;
479;SDS011;226;48.606;9.096;2023-02-19T04:42:12;2.07;;;1.93;;
479;SDS011;226;48.606;9.096;2023-02-19T04:44:40;2.07;;;1.57;;
479;SDS011;226;48.606;9.096;2023-02-19T04:47:08;1.07;;;1.07;;
479;SDS011;226;48.606;9.096;2023-02-19T04:49:36;1.50;;;1.40;;
479;SDS011;226;48.606;9.096;2023-02-19T04:52:05;3.27;;;2.20;;
479;SDS011;226;48.606;9.096;2023-02-19T04:54:34;1.80;;;1.70;;
479;SDS011;226;48.606;9.096;2023-02-19T04:57:02;1.77;;;1.70;;
479;SDS011;226;48.606;9.096;2023-02-19T04:59:31;1.50;;;1.40;;
479;SDS011;226;48.606;9.096;2023-02-19T05:01:59;2.03;;;1.70;;
479;SDS011;226;48.606;9.096;2023-02-19T05:04:27;2.10;;;1.57;;
479;SDS011;226;48.606;9.096;2023-02-19T05:06:56;1.30;;;1.20;;
479;SDS011;226;48.606;9.096;2023-02-19T05:09:24;1.23;;;1.23;;
479;SDS011;226;48.606;9.096;2023-02-19T05:11:53;0.63;;;0.63;;
479;SDS011;226;48.606;9.096;2023-02-19T05:14:21;3.90;;;2.00;;
479;SDS011;226;48.606;9.096;2023-02-19T05:16:50;1.10;;;1.10;;
479;SDS011;226;48.606;9.096;2023-02-19T05:19:18;0.70;;;0.70;;
479;SDS011;226;48.606;9.096;2023-02-19T05:21:46;1.50;;;1.40;;
479;SDS011;226;48.606;9.096;2023-02-19T05:24:14;1.50;;;1.03;;
479;SDS011;226;48.606;9.096;2023-02-19T05:26:42;0.97;;;0.97;;
479;SDS011;226;48.606;9.096;2023-02-19T05:29:12;0.80;;;0.80;;
479;SDS011;226;48.606;9.096;2023-02-19T05:31:40;1.43;;;1.33;;
479;SDS011;226;48.606;9.096;2023-02-19T05:34:08;2.20;;;0.87;;
479;SDS011;226;48.606;9.096;2023-02-19T05:36:37;0.90;;;0.90;;
479;SDS011;226;48.606;9.096;2023-02-19T05:39:06;0.70;;;0.70;;
479;SDS011;226;48.606;9.096;2023-02-19T05:41:37;1.03;;;1.00;;
479;SDS011;226;48.606;9.096;2023-02-19T05:44:05;0.77;;;0.77;;
479;SDS011;226;48.606;9.096;2023-02-19T05:46:35;1.00;;;1.00;;
479;SDS011;226;48.606;9.096;2023-02-19T05:49:03;0.83;;;0.83;;
479;SDS011;226;48.606;9.096;2023-02-19T05:51:31;2.77;;;1.20;;
479;SDS011;226;48.606;9.096;2023-02-19T05:53:59;1.00;;;1.00;;
479;SDS011;226;48.606;9.096;2023-02-19T05:56:32;0.80;;;0.80;;
479;SDS011;226;48.606;9.096;2023-02-19T05:59:01;1.20;;;1.10;;
479;SDS011;226;48.606;9.096;2023-02-19T06:01:33;0.63;;;0.63;;
479;SDS011;226;48.606;9.096;2023-02-19T06:04:03;0.70;;;0.70;;
479;SDS011;226;48.606;9.096;2023-02-19T06:06:32;0.90;;;0.90;;
479;SDS011;226;48.606;9.096;2023-02-19T06:09:00;0.90;;;0.90;;
479;SDS011;226;48.606;9.096;2023-02-19T06:11:29;0.70;;;0.70;;
479;SDS011;226;48.606;9.096;2023-02-19T06:13:57;0.63;;;0.63;;
479;SDS011;226;48.606;9.096;2023-02-19T06:16:25;1.20;;;1.20;;
479;SDS011;226;48.606;9.096;2023-02-19T06:18:55;0.70;;;0.70;;
479;SDS011;226;48.606;9.096;2023-02-19T06:21:23;0.60;;;0.60;;
479;SDS011;226;48.606;9.096;2023-02-19T06:23:52;0.80;;;0.80;;
479;SDS011;226;48.606;9.096;2023-02-19T06:26:21;0.70;;;0.70;;
479;SDS011;226;48.606;9.096;2023-02-19T06:28:51;0.60;;;0.60;;
479;SDS011;226;48.606;9.096;2023-02-19T06:31:20;0.70;;;0.70;;
479;SDS011;226;48.606;9.096;2023-02-19T06:33:49;0.83;;;0.83;;
479;SDS011;226;48.606;9.096;2023-02-19T06:36:19;0.70;;;0.70;;
479;SDS011;226;48.606;9.096;2023-02-19T06:38:48;0.60;;;0.60;;
479;SDS011;226;48.606;9.096;2023-02-19T06:41:16;0.60;;;0.60;;
479;SDS011;226;48.606;9.096;2023-02-19T06:43:45;0.77;;;0.77;;
479;SDS011;226;48.606;9.096;2023-02-19T06:46:13;2.20;;;1.10;;
479;SDS011;226;48.606;9.096;2023-02-19T06:48:42;0.70;;;0.70;;
479;SDS011;226;48.606;9.096;2023-02-19T06:51:11;0.70;;;0.70;;
479;SDS011;226;48.606;9.096;2023-02-19T06:53:41;0.60;;;0.60;;
479;SDS011;226;48.606;9.096;2023-02-19T06:56:20;0.60;;;0.60;;
479;SDS011;226;48.606;9.096;2023-02-19T06:58:51;0.60;;;0.60;;
479;SDS011;226;48.606;9.096;2023-02-19T07:01:19;0.80;;;0.80;;
479;SDS011;226;48.606;9.096;2023-02-19T07:03:48;1.10;;;1.10;;
479;SDS011;226;48.606;9.096;2023-02-19T07:06:18;0.73;;;0.73;;
479;SDS011;226;48.606;9.096;2023-02-19T07:08:49;0.60;;;0.60;;
479;SDS011;226;48.606;9.096;2023-02-19T07:11:17;0.80;;;0.80;;
479;SDS011;226;48.606;9.096;2023-02-19T07:13:45;0.70;;;0.70;;
479;SDS011;226;48.606;9.096;2023-02-19T07:16:14;2.13;;;0.83;;
479;SDS011;226;48.606;9.096;2023-02-19T07:18:43;0.73;;;0.73;;
479;SDS011;226;48.606;9.096;2023-02-19T07:21:13;0.70;;;0.70;;
479;SDS011;226;48.606;9.096;2023-02-19T07:23:41;1.43;;;0.67;;
479;SDS011;226;48.606;9.096;2023-02-19T07:26:12;0.97;;;0.73;;
479;SDS011;226;48.606;9.096;2023-02-19T07:28:42;0.60;;;0.60;;
479;SDS011;226;48.606;9.096;2023-02-19T07:31:11;2.30;;;1.33;;
479;SDS011;226;48.606;9.096;2023-02-19T07:33:41;0.90;;;0.90;;
479;SDS011;226;48.606;9.096;2023-02-19T07:36:10;0.60;;;0.60;;
479;SDS011;226;48.606;9.096;2023-02-19T07:38:39;1.27;;;0.83;;
479;SDS011;226;48.606;9.096;2023-02-19T07:41:07;0.93;;;0.93;;
479;SDS011;226;48.606;9.096;2023-02-19T07:43:38;1.13;;;1.03;;
479;SDS011;226;48.606;9.096;2023-02-19T07:46:07;0.70;;;0.70;;
479;SDS011;226;48.606;9.096;2023-02-19T07:48:37;0.80;;;0.80;;
479;SDS011;226;48.606;9.096;2023-02-19T07:51:06;0.70;;;0.70;;
479;SDS011;226;48.606;9.096;2023-02-19T07:53:37;1.17;;;1.17;;
479;SDS011;226;48.606;9.096;2023-02-19T07:56:05;0.87;;;0.87;;
479;SDS011;226;48.606;9.096;2023-02-19T07:58:34;0.73;;;0.73;;
479;SDS011;226;48.606;9.096;2023-02-19T08:01:07;0.57;;;0.57;;
479;SDS011;226;48.606;9.096;2023-02-19T08:03:37;0.83;;;0.83;;
479;SDS011;226;48.606;9.096;2023-02-19T08:06:05;0.70;;;0.70;;
479;SDS011;226;48.606;9.096;2023-02-19T08:08:33;0.67;;;0.67;;
479;SDS011;226;48.606;9.096;2023-02-19T08:11:02;0.60;;;0.60;;
479;SDS011;226;48.606;9.096;2023-02-19T08:13:49;0.83;;;0.83;;
479;SDS011;226;48.606;9.096;2023-02-19T08:16:19;0.87;;;0.87;;
479;SDS011;226;48.606;9.096;2023-02-19T08:19:07;0.77;;;0.77;;
479;SDS011;226;48.606;9.096;2023-02-19T08:21:35;0.83;;;0.83;;
479;SDS011;226;48.606;9.096;2023-02-19T08:24:04;0.80;;;0.80;;
479;SDS011;226;48.606;9.096;2023-02-19T08:26:32;0.70;;;0.70;;
479;SDS011;226;48.606;9.096;2023-02-19T08:29:01;0.73;;;0.73;;
479;SDS011;226;48.606;9.096;2023-02-19T08:31:30;1.33;;;1.10;;
479;SDS011;226;48.606;9.096;2023-02-19T08:33:59;1.10;;;1.10;;
479;SDS011;226;48.606;9.096;2023-02-19T08:36:27;0.80;;;0.80;;
479;SDS011;226;48.606;9.096;2023-02-19T08:38:55;0.73;;;0.73;;
479;SDS011;226;48.606;9.096;2023-02-19T08:41:24;1.00;;;0.80;;
479;SDS011;226;48.606;9.096;2023-02-19T08:43:52;0.77;;;0.77;;
479;SDS011;226;48.606;9.096;2023-02-19T08:46:20;2.37;;;1.27;;
479;SDS011;226;48.606;9.096;2023-02-19T08:48:50;0.80;;;0.80;;
479;SDS011;226;48.606;9.096;2023-02-19T08:51:18;0.60;;;0.60;;
479;SDS011;226;48.606;9.096;2023-02-19T08:53:46;0.97;;;0.97;;
479;SDS011;226;48.606;9.096;2023-02-19T08:56:15;0.90;;;0.90;;
479;SDS011;226;48.606;9.096;2023-02-19T08:58:43;1.23;;;1.20;;
479;SDS011;226;48.606;9.096;2023-02-19T09:01:12;0.80;;;0.80;;
479;SDS011;226;48.606;9.096;2023-02-19T09:03:43;0.60;;;0.60;;
479;SDS011;226;48.606;9.096;2023-02-19T09:06:14;0.60;;;0.60;;
479;SDS011;226;48.606;9.096;2023-02-19T09:08:43;1.30;;;1.30;;
479;SDS011;226;48.606;9.096;2023-02-19T09:11:11;0.70;;;0.70;;
479;SDS011;226;48.606;9.096;2023-02-19T09:13:40;0.70;;;0.70;;
479;SDS011;226;48.606;9.096;2023-02-19T09:16:08;0.70;;;0.70;;
479;SDS011;226;48.606;9.096;2023-02-19T09:18:37;0.70;;;0.70;;
479;SDS011;226;48.606;9.096;2023-02-19T09:21:05;16.83;;;0.90;;
479;SDS011;226;48.606;9.096;2023-02-19T09:23:35;0.70;;;0.70;;
479;SDS011;226;48.606;9.096;2023-02-19T09:26:04;4.47;;;1.10;;
479;SDS011;226;48.606;9.096;2023-02-19T09:28:35;1.17;;;1.17;;
479;SDS011;226;48.606;9.096;2023-02-19T09:31:07;0.70;;;0.70;;
479;SDS011;226;48.606;9.096;2023-02-19T09:33:40;4.77;;;1.13;;
479;SDS011;226;48.606;9.096;2023-02-19T09:36:09;0.97;;;0.97;;
479;SDS011;226;48.606;9.096;2023-02-19T09:38:38;1.13;;;1.13;;
479;SDS011;226;48.606;9.096;2023-02-19T09:41:07;0.90;;;0.90;;
479;SDS011;226;48.606;9.096;2023-02-19T09:43:41;0.80;;;0.80;;
479;SDS011;226;48.606;9.096;2023-02-19T09:46:13;0.80;;;0.80;;
479;SDS011;226;48.606;9.096;2023-02-19T09:48:55;0.73;;;0.73;;
479;SDS011;226;48.606;9.096;2023-02-19T09:51:30;0.63;;;0.63;;
479;SDS011;226;48.606;9.096;2023-02-19T09:54:02;0.80;;;0.80;;
479;SDS011;226;48.606;9.096;2023-02-19T09:56:32;0.80;;;0.80;;
479;SDS011;226;48.606;9.096;2023-02-19T09:59:01;0.70;;;0.70;;
479;SDS011;226;48.606;9.096;2023-02-19T10:01:31;0.97;;;0.90;;
479;SDS011;226;48.606;9.096;2023-02-19T10:04:05;1.10;;;1.10;;
479;SDS011;226;48.606;9.096;2023-02-19T10:06:33;1.60;;;1.10;;
479;SDS011;226;48.606;9.096;2023-02-19T10:09:20;0.80;;;0.80;;
479;SDS011;226;48.606;9.096;2023-02-19T10:11:51;1.33;;;1.10;;
479;SDS011;226;48.606;9.096;2023-02-19T10:14:21;0.83;;;0.83;;
479;SDS011;226;48.606;9.096;2023-02-19T10:17:01;1.00;;;1.00;;
479;SDS011;226;48.606;9.096;2023-02-19T10:19:31;1.00;;;1.00;;
479;SDS011;226;48.606;9.096;2023-02-19T10:22:00;1.20;;;1.10;;
479;SDS011;226;48.606;9.096;2023-02-19T10:24:31;3.23;;;1.10;;
479;SDS011;226;48.606;9.096;2023-02-19T10:27:04;3.07;;;2.70;;
479;SDS011;226;48.606;9.096;2023-02-19T10:29:36;1.80;;;0.63;;
479;SDS011;226;48.606;9.096;2023-02-19T10:32:11;6.60;;;1.13;;
479;SDS011;226;48.606;9.096;2023-02-19T10:34:42;1.00;;;1.00;;
479;SDS011;226;48.606;9.096;2023-02-19T10:37:11;6.33;;;1.20;;
479;SDS011;226;48.606;9.096;2023-02-19T10:39:43;0.90;;;0.90;;
479;SDS011;226;48.606;9.096;2023-02-19T10:42:14;0.70;;;0.70;;
479;SDS011;226;48.606;9.096;2023-02-19T10:44:44;0.80;;;0.80;;
479;SDS011;226;48.606;9.096;2023-02-19T10:47:19;0.97;;;0.97;;
479;SDS011;226;48.606;9.096;2023-02-19T10:49:49;1.50;;;1.20;;
479;SDS011;226;48.606;9.096;2023-02-19T10:52:20;1.10;;;1.10;;
479;SDS011;226;48.606;9.096;2023-02-19T10:54:54;1.00;;;0.83;;
479;SDS011;226;48.606;9.096;2023-02-19T10:57:24;0.80;;;0.80;;
479;SDS011;226;48.606;9.096;2023-02-19T10:59:58;1.10;;;1.10;;
479;SDS011;226;48.606;9.096;2023-02-19T11:02:29;1.00;;;1.00;;
479;SDS011;226;48.606;9.096;2023-02-19T11:05:01;1.53;;;1.43;;
479;SDS011;226;48.606;9.096;2023-02-19T11:07:45;0.70;;;0.70;;
479;SDS011;226;48.606;9.096;2023-02-19T11:10:24;4.93;;;1.77;;
479;SDS011;226;48.606;9.096;2023-02-19T11:12:55;0.83;;;0.83;;
479;SDS011;226;48.606;9.096;2023-02-19T11:15:27;1.00;;;0.90;;
479;SDS011;226;48.606;9.096;2023-02-19T11:17:58;2.73;;;0.97;;
479;SDS011;226;48.606;9.096;2023-02-19T11:20:30;0.70;;;0.70;;
479;SDS011;226;48.606;9.096;2023-02-19T11:23:00;1.37;;;1.27;;
479;SDS011;226;48.606;9.096;2023-02-19T11:25:42;0.90;;;0.90;;
479;SDS011;226;48.606;9.096;2023-02-19T11:28:19;1.07;;;0.90;;
479;SDS011;226;48.606;9.096;2023-02-19T11:30:51;3.53;;;1.37;;
479;SDS011;226;48.606;9.096;2023-02-19T11:33:28;0.80;;;0.80;;
479;SDS011;226;48.606;9.096;2023-02-19T11:35:58;3.03;;;1.30;;
479;SDS011;226;48.606;9.096;2023-02-19T11:38:49;0.97;;;0.80;;
479;SDS011;226;48.606;9.096;2023-02-19T11:41:21;0.90;;;0.90;;
479;SDS011;226;48.606;9.096;2023-02-19T11:44:11;1.07;;;1.07;;
479;SDS011;226;48.606;9.096;2023-02-19T11:46:53;1.00;;;0.93;;
479;SDS011;226;48.606;9.096;2023-02-19T11:49:34;0.90;;;0.90;;
479;SDS011;226;48.606;9.096;2023-02-19T11:52:15;0.70;;;0.70;;
479;SDS011;226;48.606;9.096;2023-02-19T11:54:53;1.00;;;1.00;;
479;SDS011;226;48.606;9.096;2023-02-19T11:57:37;0.60;;;0.60;;
479;SDS011;226;48.606;9.096;2023-02-19T12:00:17;0.80;;;0.80;;
479;SDS011;226;48.606;9.096;2023-02-19T12:03:11;0.90;;;0.90;;
479;SDS011;226;48.606;9.096;2023-02-19T12:05:50;1.23;;;0.90;;
479;SDS011;226;48.606;9.096;2023-02-19T12:08:38;0.63;;;0.63;;
479;SDS011;226;48.606;9.096;2023-02-19T12:11:23;0.70;;;0.70;;
479;SDS011;226;48.606;9.096;2023-02-19T12:14:18;1.40;;;1.30;;
479;SDS011;226;48.606;9.096;2023-02-19T12:17:04;0.70;;;0.70;;
479;SDS011;226;48.606;9.096;2023-02-19T12:19:43;1.03;;;1.03;;
479;SDS011;226;48.606;9.096;2023-02-19T12:22:26;5.80;;;1.40;;
479;SDS011;226;48.606;9.096;2023-02-19T12:25:10;5.00;;;1.60;;
479;SDS011;226;48.606;9.096;2023-02-19T12:28:14;0.73;;;0.73;;
479;SDS011;226;48.606;9.096;2023-02-19T12:30:50;0.90;;;0.73;;
479;SDS011;226;48.606;9.096;2023-02-19T12:33:46;1.20;;;1.10;;
479;SDS011;226;48.606;9.096;2023-02-19T12:36:31;0.93;;;0.93;;
479;SDS011;226;48.606;9.096;2023-02-19T12:39:10;2.97;;;1.10;;
479;SDS011;226;48.606;9.096;2023-02-19T12:41:47;2.20;;;0.97;;
479;SDS011;226;48.606;9.096;2023-02-19T12:44:25;0.93;;;0.93;;
479;SDS011;226;48.606;9.096;2023-02-19T12:47:06;1.23;;;1.23;;
479;SDS011;226;48.606;9.096;2023-02-19T12:49:42;0.70;;;0.70;;
479;SDS011;226;48.606;9.096;2023-02-19T12:52:16;0.87;;;0.87;;
479;SDS011;226;48.606;9.096;2023-02-19T12:54:49;3.47;;;0.97;;
479;SDS011;226;48.606;9.096;2023-02-19T12:57:21;1.23;;;0.70;;
479;SDS011;226;48.606;9.096;2023-02-19T12:59:54;0.67;;;0.67;;
479;SDS011;226;48.606;9.096;2023-02-19T13:02:35;1.07;;;1.03;;
479;SDS011;226;48.606;9.096;2023-02-19T13:05:12;0.60;;;0.60;;
479;SDS011;226;48.606;9.096;2023-02-19T13:07:47;1.23;;;1.07;;
479;SDS011;226;48.606;9.096;2023-02-19T13:10:26;8.57;;;1.07;;
479;SDS011;226;48.606;9.096;2023-02-19T13:12:59;1.20;;;1.10;;
479;SDS011;226;48.606;9.096;2023-02-19T13:15:33;0.60;;;0.60;;
479;SDS011;226;48.606;9.096;2023-02-19T13:18:09;0.50;;;0.50;;
479;SDS011;226;48.606;9.096;2023-02-19T13:20:42;4.97;;;1.10;;
479;SDS011;226;48.606;9.096;2023-02-19T13:23:15;0.53;;;0.53;;
479;SDS011;226;48.606;9.096;2023-02-19T13:29:12;0.60;;;0.60;;
479;SDS011;226;48.606;9.096;2023-02-19T13:31:53;0.67;;;0.67;;
479;SDS011;226;48.606;9.096;2023-02-19T13:34:49;0.70;;;0.70;;
479;SDS011;226;48.606;9.096;2023-02-19T13:37:30;0.60;;;0.60;;
479;SDS011;226;48.606;9.096;2023-02-19T13:40:02;0.80;;;0.80;;
479;SDS011;226;48.606;9.096;2023-02-19T13:42:33;1.17;;;1.00;;
479;SDS011;226;48.606;9.096;2023-02-19T13:45:03;0.60;;;0.60;;
479;SDS011;226;48.606;9.096;2023-02-19T13:47:48;1.33;;;0.87;;
479;SDS011;226;48.606;9.096;2023-02-19T13:50:28;0.57;;;0.57;;
479;SDS011;226;48.606;9.096;2023-02-19T13:52:58;0.80;;;0.80;;
479;SDS011;226;48.606;9.096;2023-02-19T13:55:46;0.70;;;0.70;;
479;SDS011;226;48.606;9.096;2023-02-19T13:58:33;0.87;;;0.87;;
479;SDS011;226;48.606;9.096;2023-02-19T14:01:16;0.90;;;0.90;;
479;SDS011;226;48.606;9.096;2023-02-19T14:03:45;0.70;;;0.70;;
479;SDS011;226;48.606;9.096;2023-02-19T14:06:20;0.97;;;0.97;;
479;SDS011;226;48.606;9.096;2023-02-19T14:08:50;1.10;;;1.00;;
479;SDS011;226;48.606;9.096;2023-02-19T14:14:27;0.90;;;0.90;;
479;SDS011;226;48.606;9.096;2023-02-19T14:17:03;1.10;;;1.10;;
479;SDS011;226;48.606;9.096;2023-02-19T14:19:54;0.90;;;0.90;;
479;SDS011;226;48.606;9.096;2023-02-19T14:25:41;0.80;;;0.80;;
479;SDS011;226;48.606;9.096;2023-02-19T14:28:22;6.33;;;1.00;;
479;SDS011;226;48.606;9.096;2023-02-19T14:30:59;0.93;;;0.93;;
479;SDS011;226;48.606;9.096;2023-02-19T14:33:35;1.63;;;1.37;;
479;SDS011;226;48.606;9.096;2023-02-19T14:36:10;0.60;;;0.60;;
479;SDS011;226;48.606;9.096;2023-02-19T14:38:50;0.80;;;0.80;;
479;SDS011;226;48.606;9.096;2023-02-19T14:41:22;0.90;;;0.90;;
479;SDS011;226;48.606;9.096;2023-02-19T14:43:52;1.07;;;1.07;;
479;SDS011;226;48.606;9.096;2023-02-19T14:46:24;1.53;;;1.27;;
479;SDS011;226;48.606;9.096;2023-02-19T14:48:58;0.80;;;0.80;;
479;SDS011;226;48.606;9.096;2023-02-19T14:51:32;1.43;;;1.43;;
479;SDS011;226;48.606;9.096;2023-02-19T14:54:08;1.53;;;1.07;;
479;SDS011;226;48.606;9.096;2023-02-19T14:56:43;1.13;;;1.13;;
479;SDS011;226;48.606;9.096;2023-02-19T14:59:21;1.07;;;1.03;;
479;SDS011;226;48.606;9.096;2023-02-19T15:01:55;2.63;;;1.00;;
479;SDS011;226;48.606;9.096;2023-02-19T15:04:25;1.30;;;1.20;;
479;SDS011;226;48.606;9.096;2023-02-19T15:06:56;1.43;;;1.37;;
479;SDS011;226;48.606;9.096;2023-02-19T15:09:29;0.90;;;0.90;;
479;SDS011;226;48.606;9.096;2023-02-19T15:12:00;1.20;;;1.10;;
479;SDS011;226;48.606;9.096;2023-02-19T15:14:29;0.90;;;0.90;;
479;SDS011;226;48.606;9.096;2023-02-19T15:17:00;1.13;;;0.90;;
479;SDS011;226;48.606;9.096;2023-02-19T15:19:31;3.20;;;1.43;;
479;SDS011;226;48.606;9.096;2023-02-19T15:22:04;1.70;;;1.20;;
479;SDS011;226;48.606;9.096;2023-02-19T15:24:33;2.50;;;1.07;;
479;SDS011;226;48.606;9.096;2023-02-19T15:27:02;1.33;;;1.23;;
479;SDS011;226;48.606;9.096;2023-02-19T15:29:31;1.13;;;1.10;;
479;SDS011;226;48.606;9.096;2023-02-19T15:31:59;0.87;;;0.87;;
479;SDS011;226;48.606;9.096;2023-02-19T15:34:29;0.77;;;0.77;;
479;SDS011;226;48.606;9.096;2023-02-19T15:36:58;1.30;;;1.20;;
479;SDS011;226;48.606;9.096;2023-02-19T15:39:30;1.50;;;1.50;;
479;SDS011;226;48.606;9.096;2023-02-19T15:42:02;1.67;;;1.13;;
479;SDS011;226;48.606;9.096;2023-02-19T15:44:37;1.00;;;1.00;;
479;SDS011;226;48.606;9.096;2023-02-19T15:47:13;5.03;;;1.33;;
479;SDS011;226;48.606;9.096;2023-02-19T15:49:47;1.40;;;1.30;;
479;SDS011;226;48.606;9.096;2023-02-19T15:52:22;4.10;;;1.43;;
479;SDS011;226;48.606;9.096;2023-02-19T15:54:59;1.60;;;1.40;;
479;SDS011;226;48.606;9.096;2023-02-19T15:57:35;1.03;;;0.93;;
479;SDS011;226;48.606;9.096;2023-02-19T16:00:11;1.73;;;1.03;;
479;SDS011;226;48.606;9.096;2023-02-19T16:02:43;1.30;;;1.27;;
479;SDS011;226;48.606;9.096;2023-02-19T16:05:13;2.83;;;0.90;;
479;SDS011;226;48.606;9.096;2023-02-19T16:07:43;1.10;;;1.10;;
479;SDS011;226;48.606;9.096;2023-02-19T16:10:18;1.00;;;1.00;;
479;SDS011;226;48.606;9.096;2023-02-19T16:12:56;1.30;;;1.20;;
479;SDS011;226;48.606;9.096;2023-02-19T16:15:25;1.20;;;1.20;;
479;SDS011;226;48.606;9.096;2023-02-19T16:17:56;1.70;;;1.30;;
479;SDS011;226;48.606;9.096;2023-02-19T16:20:25;5.27;;;1.43;;
479;SDS011;226;48.606;9.096;2023-02-19T16:22:56;1.20;;;0.97;;
479;SDS011;226;48.606;9.096;2023-02-19T16:25:28;5.53;;;1.10;;
479;SDS011;226;48.606;9.096;2023-02-19T16:28:09;0.90;;;0.90;;
479;SDS011;226;48.606;9.096;2023-02-19T16:30:39;1.63;;;1.17;;
479;SDS011;226;48.606;9.096;2023-02-19T16:33:26;2.10;;;1.30;;